createdAt,value
2018-03-04T00:02:04.196Z,18.45
2018-03-04T00:04:34.009Z,20.80
2018-03-04T00:07:03.826Z,20.85
2018-03-04T00:09:33.661Z,18.98
2018-03-04T00:12:03.493Z,22.58
2018-03-04T00:14:33.363Z,22.10
2018-03-04T00:17:03.754Z,22.05
2018-03-04T00:19:33.940Z,22.58
2018-03-04T00:22:03.757Z,22.08
2018-03-04T00:24:34.318Z,22.27
2018-03-04T00:27:04.201Z,24.17
2018-03-04T00:29:34.013Z,23.62
2018-03-04T00:32:03.824Z,22.55
2018-03-04T00:34:33.645Z,22.25
2018-03-04T00:37:03.447Z,22.80
2018-03-04T00:39:33.001Z,22.60
2018-03-04T00:42:03.242Z,22.02
2018-03-04T00:44:33.035Z,23.23
2018-03-04T00:47:02.845Z,21.42
2018-03-04T00:49:32.663Z,24.48
2018-03-04T00:52:02.476Z,21.40
2018-03-04T00:54:32.642Z,20.17
2018-03-04T00:57:02.469Z,20.20
2018-03-04T00:59:32.289Z,20.90
2018-03-04T01:02:02.131Z,19.02
2018-03-04T01:04:31.987Z,13.20
2018-03-04T01:07:01.834Z,19.58
2018-03-04T01:09:31.657Z,20.55
2018-03-04T01:12:01.179Z,21.73
2018-03-04T01:14:30.982Z,20.73
2018-03-04T01:19:44.972Z,20.95
2018-03-04T01:22:14.778Z,21.42
2018-03-04T01:24:44.584Z,20.25
2018-03-04T01:27:14.377Z,21.35
2018-03-04T01:29:44.194Z,18.83
2018-03-04T01:32:14.020Z,16.98
2018-03-04T01:34:43.827Z,19.45
2018-03-04T01:37:13.848Z,20.85
2018-03-04T01:39:43.656Z,18.30
2018-03-04T01:42:13.326Z,19.33
2018-03-04T01:44:43.134Z,18.23
2018-03-04T01:47:12.966Z,16.23
2018-03-04T01:49:42.762Z,12.18
2018-03-04T01:52:12.583Z,16.27
2018-03-04T01:54:42.386Z,10.60
2018-03-04T01:57:12.242Z,16.98
2018-03-04T01:59:42.430Z,16.20
2018-03-04T02:02:12.233Z,16.45
2018-03-04T02:04:42.042Z,16.70
2018-03-04T02:07:11.418Z,16.65
2018-03-04T02:09:41.080Z,15.63
2018-03-04T02:12:10.868Z,16.90
2018-03-04T02:14:40.684Z,17.05
2018-03-04T02:17:10.479Z,17.52
2018-03-04T02:19:40.305Z,18.15
2018-03-04T02:22:09.551Z,19.25
2018-03-04T02:24:39.360Z,17.27
2018-03-04T02:27:09.155Z,16.05
2018-03-04T02:29:38.950Z,17.80
2018-03-04T02:32:08.820Z,19.90
2018-03-04T02:34:38.374Z,19.62
2018-03-04T02:37:08.227Z,20.98
2018-03-04T02:39:38.053Z,19.12
2018-03-04T02:42:07.891Z,21.02
2018-03-04T02:44:37.701Z,19.67
2018-03-04T02:47:07.524Z,20.23
2018-03-04T02:49:37.335Z,20.33
2018-03-04T02:52:07.153Z,22.10
2018-03-04T02:54:36.953Z,20.95
2018-03-04T02:57:06.766Z,19.90
2018-03-04T02:59:36.577Z,20.77
2018-03-04T03:02:06.212Z,20.15
2018-03-04T03:04:35.790Z,20.48
2018-03-04T03:07:05.586Z,21.05
2018-03-04T03:09:35.437Z,20.45
2018-03-04T03:12:05.298Z,21.27
2018-03-04T03:14:35.124Z,21.20
2018-03-04T03:17:04.964Z,20.25
2018-03-04T03:19:34.798Z,19.73
2018-03-04T03:22:04.614Z,19.10
2018-03-04T03:24:34.189Z,19.00
2018-03-04T03:27:04.034Z,18.85
2018-03-04T03:29:33.869Z,20.88
2018-03-04T03:32:03.686Z,21.12
2018-03-04T03:34:33.502Z,18.92
2018-03-04T03:37:03.317Z,20.80
2018-03-04T03:39:33.142Z,20.17
2018-03-04T03:42:02.981Z,20.27
2018-03-04T03:44:32.828Z,18.65
2018-03-04T03:47:02.664Z,19.02
2018-03-04T03:49:32.464Z,20.05
2018-03-04T03:52:02.016Z,19.25
2018-03-04T03:54:31.832Z,19.58
2018-03-04T03:57:01.629Z,19.83
2018-03-04T03:59:31.433Z,19.60
2018-03-04T04:02:00.903Z,20.62
2018-03-04T04:04:30.728Z,20.85
2018-03-04T04:07:00.538Z,19.65
2018-03-04T04:09:30.356Z,19.55
2018-03-04T04:12:00.191Z,18.35
2018-03-04T04:14:30.069Z,18.70
2018-03-04T04:16:59.867Z,17.20
2018-03-04T04:19:29.504Z,18.45
2018-03-04T04:21:59.313Z,21.05
2018-03-04T04:24:29.151Z,18.42
2018-03-04T04:26:59.173Z,18.85
2018-03-04T04:29:28.985Z,21.85
2018-03-04T04:31:58.808Z,19.70
2018-03-04T04:34:28.623Z,21.12
2018-03-04T04:36:58.469Z,20.10
2018-03-04T04:39:28.277Z,17.80
2018-03-04T04:41:58.083Z,19.58
2018-03-04T04:44:28.050Z,21.02
2018-03-04T04:46:57.842Z,21.35
2018-03-04T04:49:27.658Z,19.73
2018-03-04T04:51:57.494Z,20.00
2018-03-04T04:54:27.307Z,19.87
2018-03-04T04:56:57.117Z,17.83
2018-03-04T04:59:26.928Z,21.05
2018-03-04T05:01:56.737Z,20.42
2018-03-04T05:04:26.555Z,18.27
2018-03-04T05:06:56.360Z,22.20
2018-03-04T05:09:26.155Z,22.17
2018-03-04T05:11:55.978Z,20.30
2018-03-04T05:14:25.823Z,14.90
2018-03-04T05:16:55.659Z,22.00
2018-03-04T05:19:25.484Z,21.40
2018-03-04T05:21:55.297Z,22.05
2018-03-04T05:24:25.133Z,21.05
2018-03-04T05:26:54.951Z,24.55
2018-03-04T05:29:25.019Z,22.70
2018-03-04T05:31:54.824Z,22.30
2018-03-04T05:34:24.676Z,22.27
2018-03-04T05:36:54.518Z,24.60
2018-03-04T05:39:24.320Z,23.90
2018-03-04T05:41:54.133Z,23.10
2018-03-04T05:44:23.952Z,24.33
2018-03-04T05:46:53.762Z,23.80
2018-03-04T05:49:27.084Z,23.25
2018-03-04T05:51:57.104Z,23.73
2018-03-04T05:54:26.911Z,25.08
2018-03-04T05:56:56.742Z,23.95
2018-03-04T05:59:26.546Z,24.95
2018-03-04T06:01:57.859Z,25.62
2018-03-04T06:04:27.688Z,24.17
2018-03-04T06:06:57.512Z,24.42
2018-03-04T06:09:27.343Z,24.98
2018-03-04T06:11:57.145Z,26.42
2018-03-04T06:14:26.967Z,20.88
2018-03-04T06:16:56.775Z,26.40
2018-03-04T06:19:26.572Z,25.50
2018-03-04T06:21:56.404Z,21.42
2018-03-04T06:24:26.204Z,26.10
2018-03-04T06:26:56.004Z,25.40
2018-03-04T06:29:25.822Z,25.85
2018-03-04T06:31:55.625Z,25.35
2018-03-04T06:34:25.106Z,26.08
2018-03-04T06:36:54.926Z,25.73
2018-03-04T06:39:24.756Z,26.80
2018-03-04T06:41:54.580Z,28.58
2018-03-04T06:44:24.384Z,25.45
2018-03-04T06:46:54.192Z,26.05
2018-03-04T06:49:23.988Z,25.65
2018-03-04T06:51:53.829Z,26.77
2018-03-04T06:54:23.509Z,27.15
2018-03-04T06:56:53.318Z,27.05
2018-03-04T06:59:23.123Z,28.23
2018-03-04T07:01:52.929Z,27.33
2018-03-04T07:04:22.738Z,29.25
2018-03-04T07:06:52.516Z,27.85
2018-03-04T07:09:22.353Z,26.90
2018-03-04T07:11:52.162Z,26.55
2018-03-04T07:14:21.979Z,26.35
2018-03-04T07:16:51.802Z,28.65
2018-03-04T07:19:21.662Z,28.35
2018-03-04T07:21:51.456Z,26.17
2018-03-04T07:24:21.273Z,25.98
2018-03-04T07:26:54.859Z,27.08
2018-03-04T07:29:24.662Z,25.70
2018-03-04T07:31:54.471Z,25.58
2018-03-04T07:34:24.296Z,25.45
2018-03-04T07:36:54.119Z,26.12
2018-03-04T07:39:23.929Z,25.52
2018-03-04T07:41:53.925Z,25.62
2018-03-04T07:44:23.743Z,25.50
2018-03-04T07:46:53.559Z,25.35
2018-03-04T07:49:23.363Z,25.98
2018-03-04T07:51:53.176Z,28.27
2018-03-04T07:54:22.991Z,25.83
2018-03-04T07:56:52.820Z,27.92
2018-03-04T07:59:22.657Z,27.77
2018-03-04T08:01:52.473Z,29.63
2018-03-04T08:04:22.292Z,27.02
2018-03-04T08:06:52.097Z,25.52
2018-03-04T08:09:21.896Z,26.25
2018-03-04T08:11:51.702Z,27.87
2018-03-04T08:14:21.505Z,26.40
2018-03-04T08:16:51.324Z,26.08
2018-03-04T08:19:21.144Z,29.33
2018-03-04T08:21:50.941Z,26.25
2018-03-04T08:24:31.748Z,25.40
2018-03-04T08:27:12.706Z,27.30
2018-03-04T08:29:42.239Z,24.50
2018-03-04T08:32:11.899Z,28.02
2018-03-04T08:34:41.723Z,26.02
2018-03-04T08:37:11.203Z,23.40
2018-03-04T08:39:40.753Z,26.58
2018-03-04T08:42:10.553Z,26.30
2018-03-04T08:44:40.366Z,28.35
2018-03-04T08:47:10.158Z,26.62
2018-03-04T08:49:39.961Z,26.37
2018-03-04T08:52:09.765Z,25.98
2018-03-04T08:54:39.606Z,26.92
2018-03-04T08:57:09.445Z,26.02
2018-03-04T08:59:39.248Z,27.58
2018-03-04T09:02:09.072Z,27.52
2018-03-04T09:04:38.624Z,26.98
2018-03-04T09:07:08.438Z,26.42
2018-03-04T09:09:38.248Z,25.85
2018-03-04T09:12:08.053Z,24.23
2018-03-04T09:14:37.996Z,24.02
2018-03-04T09:17:07.975Z,23.00
2018-03-04T09:19:37.506Z,24.95
2018-03-04T09:22:07.610Z,25.27
2018-03-04T09:24:37.643Z,25.58
2018-03-04T09:27:07.485Z,24.63
2018-03-04T09:29:37.284Z,25.40
2018-03-04T09:32:07.018Z,27.25
2018-03-04T09:34:36.844Z,27.55
2018-03-04T09:37:06.698Z,24.40
2018-03-04T09:39:36.500Z,18.25
2018-03-04T09:42:06.319Z,25.27
2018-03-04T09:44:36.149Z,24.85
2018-03-04T09:47:05.980Z,24.48
2018-03-04T09:49:35.818Z,24.60
2018-03-04T09:52:05.616Z,26.90
2018-03-04T09:54:35.423Z,26.27
2018-03-04T09:57:05.227Z,25.10
2018-03-04T09:59:35.056Z,26.27
2018-03-04T10:02:04.870Z,23.80
2018-03-04T10:04:35.054Z,27.67
2018-03-04T10:07:08.716Z,27.05
2018-03-04T10:09:39.115Z,26.62
2018-03-04T10:12:08.933Z,28.00
2018-03-04T10:14:38.787Z,27.67
2018-03-04T10:17:08.645Z,25.50
2018-03-04T10:19:38.217Z,27.17
2018-03-04T10:22:08.941Z,27.37
2018-03-04T10:24:38.825Z,28.50
2018-03-04T10:27:09.364Z,29.83
2018-03-04T10:29:39.208Z,27.40
2018-03-04T10:32:09.889Z,30.52
2018-03-04T10:34:39.741Z,28.27
2018-03-04T10:37:11.538Z,27.25
2018-03-04T10:39:41.462Z,29.35
2018-03-04T10:42:11.585Z,26.70
2018-03-04T10:44:41.418Z,26.37
2018-03-04T10:47:11.238Z,29.25
2018-03-04T10:49:41.092Z,26.23
2018-03-04T10:52:11.342Z,28.38
2018-03-04T10:54:41.195Z,29.10
2018-03-04T10:57:11.007Z,29.98
2018-03-04T10:59:40.804Z,29.83
2018-03-04T11:02:15.945Z,29.40
2018-03-04T11:04:49.939Z,31.40
2018-03-04T11:07:24.265Z,32.05
2018-03-04T11:09:54.068Z,30.77
2018-03-04T11:12:23.900Z,27.98
2018-03-04T11:14:53.697Z,27.73
2018-03-04T11:17:23.571Z,27.67
2018-03-04T11:19:53.362Z,29.37
2018-03-04T11:22:23.176Z,30.30
2018-03-04T11:24:52.993Z,30.67
2018-03-04T11:27:22.787Z,30.83
2018-03-04T11:29:52.596Z,31.83
2018-03-04T11:32:22.795Z,31.92
2018-03-04T11:34:52.635Z,25.60
2018-03-04T11:37:22.453Z,32.53
2018-03-04T11:39:52.266Z,31.37
2018-03-04T11:42:22.092Z,29.73
2018-03-04T11:44:52.969Z,30.20
2018-03-04T11:47:22.766Z,29.20
2018-03-04T11:49:53.163Z,30.33
2018-03-04T11:52:22.953Z,28.55
2018-03-04T11:54:52.811Z,29.92
2018-03-04T11:57:22.604Z,30.37
2018-03-04T11:59:52.424Z,30.60
2018-03-04T12:02:22.247Z,28.95
2018-03-04T12:04:52.060Z,30.37
2018-03-04T12:07:21.918Z,32.08
2018-03-04T12:09:51.919Z,33.83
2018-03-04T12:12:21.713Z,32.33
2018-03-04T12:14:52.055Z,31.15
2018-03-04T12:17:21.855Z,31.20
2018-03-04T12:19:51.706Z,33.67
2018-03-04T12:22:21.533Z,28.77
2018-03-04T12:24:51.336Z,29.77
2018-03-04T12:27:21.155Z,31.25
2018-03-04T12:29:50.990Z,32.17
2018-03-04T12:32:20.689Z,31.12
2018-03-04T12:34:50.505Z,31.10
2018-03-04T12:37:21.271Z,31.35
2018-03-04T12:39:51.101Z,30.95
2018-03-04T12:42:21.012Z,31.37
2018-03-04T12:44:50.827Z,31.92
2018-03-04T12:47:20.888Z,34.22
2018-03-04T12:49:50.704Z,33.90
2018-03-04T12:52:20.537Z,33.97
2018-03-04T12:54:51.444Z,36.70
2018-03-04T12:57:21.916Z,32.80
2018-03-04T12:59:52.078Z,32.72
2018-03-04T13:02:22.055Z,33.97
2018-03-04T13:04:51.928Z,31.62
2018-03-04T13:07:21.741Z,32.10
2018-03-04T13:09:51.054Z,34.08
2018-03-04T13:12:20.885Z,32.50
2018-03-04T13:14:54.699Z,30.30
2018-03-04T13:17:24.234Z,31.35
2018-03-04T13:19:54.028Z,33.40
2018-03-04T13:22:23.904Z,32.63
2018-03-04T13:24:54.598Z,32.20
2018-03-04T13:27:24.468Z,34.25
2018-03-04T13:29:54.020Z,33.93
2018-03-04T13:32:23.524Z,36.13
2018-03-04T13:34:56.964Z,37.57
2018-03-04T13:37:26.648Z,37.03
2018-03-04T13:39:56.562Z,36.30
2018-03-04T13:42:26.091Z,33.53
2018-03-04T13:44:55.834Z,34.73
2018-03-04T13:47:25.379Z,33.53
2018-03-04T13:49:54.902Z,33.80
2018-03-04T13:52:24.436Z,32.17
2018-03-04T13:54:53.961Z,30.53
2018-03-04T13:57:23.482Z,31.80
2018-03-04T13:59:52.997Z,32.07
2018-03-04T14:02:22.553Z,34.67
2018-03-04T14:04:52.114Z,33.00
2018-03-04T14:07:21.451Z,36.23
2018-03-04T14:09:50.989Z,34.10
2018-03-04T14:12:24.354Z,35.33
2018-03-04T14:14:53.880Z,35.27
2018-03-04T14:17:23.405Z,35.20
2018-03-04T14:19:53.048Z,37.20
2018-03-04T14:22:22.588Z,35.00
2018-03-04T14:24:52.193Z,35.60
2018-03-04T14:27:21.710Z,36.67
2018-03-04T14:29:51.263Z,32.43
2018-03-04T14:32:20.782Z,36.77
2018-03-04T14:34:50.828Z,39.30
2018-03-04T14:37:20.460Z,42.70
2018-03-04T14:39:50.082Z,40.90
2018-03-04T14:42:19.607Z,39.10
2018-03-04T14:44:49.118Z,42.57
2018-03-04T14:47:18.641Z,40.90
2018-03-04T14:49:48.170Z,42.43
2018-03-04T14:52:17.700Z,36.50
2018-03-04T14:54:47.532Z,38.58
2018-03-04T14:57:17.370Z,34.05
2018-03-04T14:59:47.220Z,40.35
2018-03-04T15:02:17.529Z,46.15
2018-03-04T15:04:47.197Z,44.70
2018-03-04T15:07:17.036Z,43.22
2018-03-04T15:09:46.850Z,44.10
2018-03-04T15:12:16.663Z,39.63
2018-03-04T15:14:46.486Z,40.83
2018-03-04T15:17:16.304Z,37.30
2018-03-04T15:19:46.139Z,34.22
2018-03-04T15:22:15.865Z,37.38
2018-03-04T15:24:45.746Z,36.15
2018-03-04T15:27:15.674Z,40.55
2018-03-04T15:29:46.574Z,30.83
2018-03-04T15:32:16.539Z,41.60
2018-03-04T15:34:46.349Z,40.83
2018-03-04T15:37:16.166Z,38.90
2018-03-04T15:39:46.003Z,36.17
2018-03-04T15:42:15.829Z,27.48
2018-03-04T15:44:45.641Z,34.42
2018-03-04T15:47:19.471Z,35.50
2018-03-04T15:49:49.299Z,28.17
2018-03-04T15:52:19.278Z,34.20
2018-03-04T15:54:49.113Z,35.45
2018-03-04T15:57:18.914Z,37.58
2018-03-04T15:59:48.708Z,36.75
2018-03-04T16:02:18.324Z,37.58
2018-03-04T16:04:48.155Z,39.72
2018-03-04T16:07:18.028Z,41.72
2018-03-04T16:09:48.716Z,40.53
2018-03-04T16:12:18.562Z,30.05
2018-03-04T16:14:49.015Z,40.63
2018-03-04T16:17:18.818Z,37.83
2018-03-04T16:19:48.672Z,32.40
2018-03-04T16:22:18.592Z,42.50
2018-03-04T16:24:48.427Z,39.78
2018-03-04T16:27:18.276Z,34.67
2018-03-04T16:29:48.192Z,38.15
2018-03-04T16:32:18.034Z,37.05
2018-03-04T16:34:47.845Z,39.20
2018-03-04T16:37:17.645Z,39.70
2018-03-04T16:39:48.063Z,37.72
2018-03-04T16:42:18.677Z,36.90
2018-03-04T16:44:48.478Z,37.15
2018-03-04T16:47:18.279Z,38.30
2018-03-04T16:49:48.117Z,32.08
2018-03-04T16:52:17.941Z,34.65
2018-03-04T16:54:47.966Z,36.35
2018-03-04T16:57:17.735Z,34.22
2018-03-04T16:59:47.574Z,34.95
2018-03-04T17:02:17.433Z,37.63
2018-03-04T17:04:47.241Z,35.58
2018-03-04T17:07:17.061Z,38.05
2018-03-04T17:09:46.875Z,38.03
2018-03-04T17:12:16.711Z,35.03
2018-03-04T17:14:46.282Z,37.08
2018-03-04T17:17:16.099Z,37.97
2018-03-04T17:19:45.911Z,38.45
2018-03-04T17:22:15.523Z,32.85
2018-03-04T17:24:45.344Z,37.65
2018-03-04T17:27:15.165Z,36.75
2018-03-04T17:29:44.985Z,36.53
2018-03-04T17:32:14.837Z,33.58
2018-03-04T17:34:44.811Z,37.25
2018-03-04T17:37:14.651Z,35.70
2018-03-04T17:39:44.757Z,36.72
2018-03-04T17:42:14.629Z,38.42
2018-03-04T17:44:44.444Z,36.55
2018-03-04T17:47:14.267Z,39.03
2018-03-04T17:49:44.091Z,37.03
2018-03-04T17:52:13.892Z,37.58
2018-03-04T17:54:43.726Z,39.03
2018-03-04T17:57:13.546Z,38.92
2018-03-04T17:59:43.334Z,36.97
2018-03-04T18:02:13.147Z,37.35
2018-03-04T18:04:42.964Z,38.33
2018-03-04T18:07:12.764Z,39.35
2018-03-04T18:09:42.621Z,38.05
2018-03-04T18:12:12.428Z,36.40
2018-03-04T18:14:42.241Z,38.63
2018-03-04T18:17:12.029Z,37.03
2018-03-04T18:19:41.828Z,37.55
2018-03-04T18:22:11.644Z,39.90
2018-03-04T18:24:41.485Z,39.90
2018-03-04T18:27:11.341Z,39.22
2018-03-04T18:29:41.177Z,39.83
2018-03-04T18:32:10.702Z,39.70
2018-03-04T18:34:40.708Z,39.42
2018-03-04T18:37:10.532Z,38.05
2018-03-04T18:39:40.382Z,38.20
2018-03-04T18:42:10.192Z,40.60
2018-03-04T18:44:40.196Z,37.53
2018-03-04T18:47:10.055Z,38.25
2018-03-04T18:49:39.884Z,37.70
2018-03-04T18:52:10.044Z,38.80
2018-03-04T18:54:39.889Z,40.08
2018-03-04T18:57:09.703Z,40.55
2018-03-04T18:59:43.217Z,39.67
2018-03-04T19:02:13.363Z,39.67
2018-03-04T19:04:43.185Z,39.42
2018-03-04T19:07:13.020Z,40.60
2018-03-04T19:09:42.681Z,39.95
2018-03-04T19:12:12.312Z,40.55
2018-03-04T19:14:42.155Z,40.38
2018-03-04T19:17:12.170Z,39.00
2018-03-04T19:19:42.041Z,40.38
2018-03-04T19:22:11.871Z,41.90
2018-03-04T19:24:42.397Z,43.03
2018-03-04T19:27:12.974Z,42.60
2018-03-04T19:29:42.805Z,40.50
2018-03-04T19:32:12.637Z,41.85
2018-03-04T19:34:42.242Z,42.08
2018-03-04T19:37:12.888Z,41.33
2018-03-04T19:39:42.712Z,39.65
2018-03-04T19:42:12.501Z,39.05
2018-03-04T19:44:42.292Z,38.65
2018-03-04T19:47:12.107Z,40.78
2018-03-04T19:49:41.917Z,39.85
2018-03-04T19:52:11.712Z,39.08
2018-03-04T19:54:41.526Z,38.67
2018-03-04T19:57:11.377Z,40.30
2018-03-04T19:59:41.198Z,40.08
2018-03-04T20:02:11.019Z,39.78
2018-03-04T20:04:40.939Z,38.63
2018-03-04T20:07:10.731Z,40.53
2018-03-04T20:09:41.151Z,38.10
2018-03-04T20:12:11.128Z,39.63
2018-03-04T20:14:41.205Z,38.60
2018-03-04T20:17:11.250Z,37.95
2018-03-04T20:19:41.132Z,38.50
2018-03-04T20:22:11.257Z,37.92
2018-03-04T20:24:41.683Z,39.00
2018-03-04T20:27:12.360Z,37.72
2018-03-04T20:29:42.200Z,37.08
2018-03-04T20:32:11.999Z,40.08
2018-03-04T20:34:41.820Z,40.47
2018-03-04T20:37:11.825Z,38.75
2018-03-04T20:39:41.643Z,40.12
2018-03-04T20:42:11.452Z,42.45
2018-03-04T20:44:41.268Z,39.72
2018-03-04T20:47:11.069Z,41.53
2018-03-04T20:49:40.887Z,43.00
2018-03-04T20:52:10.702Z,40.45
2018-03-04T20:54:40.527Z,41.30
2018-03-04T20:57:10.335Z,39.90
2018-03-04T20:59:40.145Z,40.72
2018-03-04T21:02:09.974Z,40.05
2018-03-04T21:04:40.292Z,40.00
2018-03-04T21:07:11.296Z,42.95
2018-03-04T21:09:40.852Z,39.10
2018-03-04T21:12:10.724Z,39.80
2018-03-04T21:14:40.538Z,43.30
2018-03-04T21:17:10.432Z,37.22
2018-03-04T21:19:40.294Z,39.95
2018-03-04T21:22:10.640Z,43.42
2018-03-04T21:24:40.537Z,41.53
2018-03-04T21:27:10.344Z,41.63
2018-03-04T21:29:40.171Z,39.53
2018-03-04T21:32:10.020Z,39.35
2018-03-04T21:34:39.857Z,40.28
2018-03-04T21:37:09.752Z,37.03
2018-03-04T21:39:39.381Z,38.13
2018-03-04T21:42:08.969Z,36.08
2018-03-04T21:44:38.966Z,39.25
2018-03-04T21:47:08.538Z,38.83
2018-03-04T21:49:38.718Z,40.55
2018-03-04T21:52:08.674Z,38.45
2018-03-04T21:54:38.484Z,37.40
2018-03-04T21:57:08.019Z,39.60
2018-03-04T21:59:37.854Z,39.28
2018-03-04T22:02:07.662Z,36.85
2018-03-04T22:04:41.601Z,36.60
2018-03-04T22:07:11.441Z,36.38
2018-03-04T22:09:41.246Z,38.75
2018-03-04T22:12:11.091Z,42.00
2018-03-04T22:14:40.900Z,41.42
2018-03-04T22:17:10.744Z,40.85
2018-03-04T22:19:40.556Z,41.58
2018-03-04T22:22:10.368Z,42.72
2018-03-04T22:24:40.194Z,42.92
2018-03-04T22:27:10.189Z,40.22
2018-03-04T22:29:40.007Z,39.40
2018-03-04T22:32:09.693Z,40.88
2018-03-04T22:34:39.512Z,38.83
2018-03-04T22:37:09.345Z,37.50
2018-03-04T22:39:39.149Z,38.40
2018-03-04T22:42:08.968Z,41.60
2018-03-04T22:44:38.776Z,38.63
2018-03-04T22:47:08.331Z,41.75
2018-03-04T22:49:37.840Z,44.20
2018-03-04T22:52:07.659Z,41.97
2018-03-04T22:54:37.476Z,46.70
2018-03-04T22:57:07.282Z,47.05
2018-03-04T22:59:37.113Z,46.63
2018-03-04T23:02:06.908Z,45.33
2018-03-04T23:04:36.547Z,45.67
2018-03-04T23:07:06.084Z,47.45
2018-03-04T23:09:35.626Z,48.58
2018-03-04T23:12:05.441Z,41.47
2018-03-04T23:14:35.365Z,38.78
2018-03-04T23:17:04.947Z,41.72
2018-03-04T23:19:34.780Z,41.65
2018-03-04T23:22:04.455Z,36.40
2018-03-04T23:24:34.010Z,37.90
2018-03-04T23:27:03.525Z,39.78
2018-03-04T23:29:33.074Z,37.63
2018-03-04T23:32:02.606Z,39.28
2018-03-04T23:34:32.116Z,38.90
2018-03-04T23:37:01.658Z,37.55
2018-03-04T23:39:31.196Z,38.00
2018-03-04T23:42:01.161Z,34.13
2018-03-04T23:44:30.685Z,39.95
2018-03-04T23:47:00.495Z,40.97
2018-03-04T23:49:30.029Z,40.70
2018-03-04T23:51:59.885Z,45.40
2018-03-04T23:54:29.406Z,42.70
2018-03-04T23:56:59.248Z,41.70
2018-03-04T23:59:28.785Z,45.38
